Home > Products > Valid Products > TAF

000
FTUS45 KGJT 291748
TAFGJT
TAF
KGJT 291748Z 2918/3018 13007KT P6SM VCSH SCT060 OVC100
      TEMPO 2918/2920 -SHRA BKN060
     FM292000 22006KT P6SM VCTS SCT060CB BKN100
      TEMPO 2920/2924 VRB15G25KT 3SM +TSRA SCT030 OVC045CB
     FM300000 25006KT P6SM VCTS BKN060CB BKN100
      TEMPO 3000/3004 VRB10G20KT 3SM +TSRA SCT030 OVC045CB
     FM300400 12014KT P6SM VCSH SCT050 OVC100
     FM301200 10007KT P6SM SCT050 BKN150=



000
FTUS45 KGJT 291748
TAFGJT
TAF
KGJT 291748Z 2918/3018 13007KT P6SM VCSH SCT060 OVC100
      TEMPO 2918/2920 -SHRA BKN060
     FM292000 22006KT P6SM VCTS SCT060CB BKN100
      TEMPO 2920/2924 VRB15G25KT 3SM +TSRA SCT030 OVC045CB
     FM300000 25006KT P6SM VCTS BKN060CB BKN100
      TEMPO 3000/3004 VRB10G20KT 3SM +TSRA SCT030 OVC045CB
     FM300400 12014KT P6SM VCSH SCT050 OVC100
     FM301200 10007KT P6SM SCT050 BKN150=



000
FTUS45 KGJT 291145
TAFGJT
TAF
KGJT 291145Z 2912/3012 13007KT P6SM VCSH BKN100
     FM291800 15007KT P6SM SCT100 BKN150
     FM292000 25006KT P6SM VCTS SCT080CB BKN100
      TEMPO 2920/2924 VRB15G25KT 3SM +TSRA SCT030 OVC045CB
     FM300200 12012KT P6SM VCSH OVC100=



000
FTUS45 KGJT 291145
TAFGJT
TAF
KGJT 291145Z 2912/3012 13007KT P6SM VCSH BKN100
     FM291800 15007KT P6SM SCT100 BKN150
     FM292000 25006KT P6SM VCTS SCT080CB BKN100
      TEMPO 2920/2924 VRB15G25KT 3SM +TSRA SCT030 OVC045CB
     FM300200 12012KT P6SM VCSH OVC100=



000
FTUS45 KGJT 291023 AAB
TAFGJT
TAF AMD
KGJT 291023Z 2910/3006 09005KT P6SM -SHRA OVC100
     FM291200 14008KT P6SM BKN150
     FM291800 15007KT P6SM FEW120 BKN150
     FM292100 18008KT P6SM VCTS SCT080CB BKN100
      TEMPO 2921/2924 -TSRA SCT080CB
     FM300000 12012KT P6SM VCSH OVC100=



000
FTUS45 KGJT 291023 AAB
TAFGJT
TAF AMD
KGJT 291023Z 2910/3006 09005KT P6SM -SHRA OVC100
     FM291200 14008KT P6SM BKN150
     FM291800 15007KT P6SM FEW120 BKN150
     FM292100 18008KT P6SM VCTS SCT080CB BKN100
      TEMPO 2921/2924 -TSRA SCT080CB
     FM300000 12012KT P6SM VCSH OVC100=



000
FTUS45 KGJT 290909 AAD
TAFGJT
TAF AMD
KGJT 290909Z 2909/3006 VRB04KT 4SM RA BR SCT045 BKN080
     FM291000 11010KT P6SM OVC120
     FM291200 14008KT P6SM BKN150
     FM291800 15007KT P6SM FEW120 BKN150
     FM292100 18008KT P6SM VCTS SCT080CB BKN100
      TEMPO 2921/2924 -TSRA SCT080CB
     FM300000 12012KT P6SM VCSH OVC100=



000
FTUS45 KGJT 290909 AAD
TAFGJT
TAF AMD
KGJT 290909Z 2909/3006 VRB04KT 4SM RA BR SCT045 BKN080
     FM291000 11010KT P6SM OVC120
     FM291200 14008KT P6SM BKN150
     FM291800 15007KT P6SM FEW120 BKN150
     FM292100 18008KT P6SM VCTS SCT080CB BKN100
      TEMPO 2921/2924 -TSRA SCT080CB
     FM300000 12012KT P6SM VCSH OVC100=



000
FTUS45 KGJT 290816 AAC
TAFGJT
TAF AMD
KGJT 290816Z 2908/3006 VRB04KT 2SM RA FEW023 BKN030 OVC040
      TEMPO 2908/2910 1 1/2SM +RA FEW008 BKN021 OVC025
     FM291000 11010KT P6SM OVC120
     FM291200 14008KT P6SM BKN150
     FM291800 15007KT P6SM FEW120 BKN150
     FM292100 18008KT P6SM VCTS SCT080CB BKN100
      TEMPO 2921/2924 -TSRA SCT080CB
     FM300000 12012KT P6SM VCSH OVC100=



000
FTUS45 KGJT 290816 AAC
TAFGJT
TAF AMD
KGJT 290816Z 2908/3006 VRB04KT 2SM RA FEW023 BKN030 OVC040
      TEMPO 2908/2910 1 1/2SM +RA FEW008 BKN021 OVC025
     FM291000 11010KT P6SM OVC120
     FM291200 14008KT P6SM BKN150
     FM291800 15007KT P6SM FEW120 BKN150
     FM292100 18008KT P6SM VCTS SCT080CB BKN100
      TEMPO 2921/2924 -TSRA SCT080CB
     FM300000 12012KT P6SM VCSH OVC100=



000
FTUS45 KGJT 290706 AAB
TAFGJT
TAF AMD
KGJT 290706Z 2907/3006 19010KT P6SM -RA FEW023 BKN060 OVC110
     FM290900 11010KT P6SM OVC120
     FM291200 14008KT P6SM BKN150
     FM291800 15007KT P6SM FEW120 BKN150
     FM292100 18008KT P6SM VCTS SCT080CB BKN100
      TEMPO 2921/2924 -TSRA SCT080CB
     FM300000 12012KT P6SM VCSH OVC100=



000
FTUS45 KGJT 290706 AAB
TAFGJT
TAF AMD
KGJT 290706Z 2907/3006 19010KT P6SM -RA FEW023 BKN060 OVC110
     FM290900 11010KT P6SM OVC120
     FM291200 14008KT P6SM BKN150
     FM291800 15007KT P6SM FEW120 BKN150
     FM292100 18008KT P6SM VCTS SCT080CB BKN100
      TEMPO 2921/2924 -TSRA SCT080CB
     FM300000 12012KT P6SM VCSH OVC100=



000
FTUS45 KGJT 290520
TAFGJT
TAF
KGJT 290520Z 2906/3006 05020G30KT P6SM OVC120
     FM290900 11010KT P6SM OVC120
     FM291200 14008KT P6SM BKN150
     FM291800 15007KT P6SM FEW120 BKN150
     FM292100 18008KT P6SM VCTS SCT080CB BKN100
      TEMPO 2921/2924 -TSRA SCT080CB
     FM300000 12012KT P6SM VCSH OVC100=



000
FTUS45 KGJT 290520
TAFGJT
TAF
KGJT 290520Z 2906/3006 05020G30KT P6SM OVC120
     FM290900 11010KT P6SM OVC120
     FM291200 14008KT P6SM BKN150
     FM291800 15007KT P6SM FEW120 BKN150
     FM292100 18008KT P6SM VCTS SCT080CB BKN100
      TEMPO 2921/2924 -TSRA SCT080CB
     FM300000 12012KT P6SM VCSH OVC100=



000
FTUS45 KGJT 282322
TAFGJT
TAF
KGJT 282322Z 2900/2924 28007KT P6SM VCTS SCT100CB BKN150
      TEMPO 2900/2903 VRB15G25KT -TSRA BKN080CB
     FM290300 16012G25KT P6SM BKN100
     FM290600 11010KT P6SM BKN150
     FM291200 14008KT P6SM BKN150
     FM291800 15007KT P6SM FEW120 BKN150
     FM292100 18008KT P6SM VCTS SCT120CB BKN150=



000
FTUS45 KGJT 282322
TAFGJT
TAF
KGJT 282322Z 2900/2924 28007KT P6SM VCTS SCT100CB BKN150
      TEMPO 2900/2903 VRB15G25KT -TSRA BKN080CB
     FM290300 16012G25KT P6SM BKN100
     FM290600 11010KT P6SM BKN150
     FM291200 14008KT P6SM BKN150
     FM291800 15007KT P6SM FEW120 BKN150
     FM292100 18008KT P6SM VCTS SCT120CB BKN150=



000
FTUS45 KGJT 281730
TAFGJT
TAF
KGJT 281730Z 2818/2918 26005KT P6SM BKN120 OVC200
     FM282100 28007KT P6SM VCTS SCT100CB BKN150
      TEMPO 2823/2903 VRB15G25KT -TSRA BKN080CB
     FM290300 16012G25KT P6SM BKN100
     FM290600 11010KT P6SM BKN100
     FM291200 14008KT P6SM BKN100=



000
FTUS45 KGJT 281730
TAFGJT
TAF
KGJT 281730Z 2818/2918 26005KT P6SM BKN120 OVC200
     FM282100 28007KT P6SM VCTS SCT100CB BKN150
      TEMPO 2823/2903 VRB15G25KT -TSRA BKN080CB
     FM290300 16012G25KT P6SM BKN100
     FM290600 11010KT P6SM BKN100
     FM291200 14008KT P6SM BKN100=



000
FTUS45 KGJT 281139
TAFGJT
TAF
KGJT 281139Z 2812/2912 VRB03KT P6SM FEW120 BKN180
     FM281500 11005KT P6SM SCT120 SCT180
     FM281800 19007KT P6SM SCT120 BKN180
     FM282100 28007KT P6SM VCTS SCT100CB BKN150
     FM290200 16012G25KT P6SM BKN100
     FM290600 11010KT P6SM BKN100=



000
FTUS45 KGJT 281139
TAFGJT
TAF
KGJT 281139Z 2812/2912 VRB03KT P6SM FEW120 BKN180
     FM281500 11005KT P6SM SCT120 SCT180
     FM281800 19007KT P6SM SCT120 BKN180
     FM282100 28007KT P6SM VCTS SCT100CB BKN150
     FM290200 16012G25KT P6SM BKN100
     FM290600 11010KT P6SM BKN100=



000
FTUS45 KGJT 280520
TAFGJT
TAF
KGJT 280520Z 2806/2906 11008KT P6SM FEW120 SCT180
     FM281500 14010KT P6SM SCT120 SCT180
     FM281800 19007KT P6SM SCT120 BKN180
     FM282100 28007KT P6SM VCTS SCT100CB BKN150
     FM290200 16012G25KT P6SM BKN100=



000
FTUS45 KGJT 280520
TAFGJT
TAF
KGJT 280520Z 2806/2906 11008KT P6SM FEW120 SCT180
     FM281500 14010KT P6SM SCT120 SCT180
     FM281800 19007KT P6SM SCT120 BKN180
     FM282100 28007KT P6SM VCTS SCT100CB BKN150
     FM290200 16012G25KT P6SM BKN100=



000
FTUS45 KGJT 280009 AAA
TAFGJT
TAF AMD
KGJT 280009Z 2800/2824 16020G30KT P6SM VCTS SCT100CB BKN150
     FM280300 06008KT P6SM SCT120 BKN150
     FM280600 11008KT P6SM FEW120 SCT180
     FM281500 14010KT P6SM SCT120 SCT180
     FM281800 19007KT P6SM SCT120 BKN180
     FM282100 28007KT P6SM VCTS SCT100CB BKN150=



000
FTUS45 KGJT 280009 AAA
TAFGJT
TAF AMD
KGJT 280009Z 2800/2824 16020G30KT P6SM VCTS SCT100CB BKN150
     FM280300 06008KT P6SM SCT120 BKN150
     FM280600 11008KT P6SM FEW120 SCT180
     FM281500 14010KT P6SM SCT120 SCT180
     FM281800 19007KT P6SM SCT120 BKN180
     FM282100 28007KT P6SM VCTS SCT100CB BKN150=



000
FTUS45 KGJT 272320
TAFGJT
TAF
KGJT 272320Z 2800/2824 28008KT P6SM VCTS SCT100CB BKN150
     FM280300 06008KT P6SM SCT120 BKN150
     FM280600 11008KT P6SM FEW120 SCT180
     FM281500 14010KT P6SM SCT120 SCT180
     FM281800 19007KT P6SM SCT120 BKN180
     FM282100 28007KT P6SM VCTS SCT100CB BKN150=



000
FTUS45 KGJT 272320
TAFGJT
TAF
KGJT 272320Z 2800/2824 28008KT P6SM VCTS SCT100CB BKN150
     FM280300 06008KT P6SM SCT120 BKN150
     FM280600 11008KT P6SM FEW120 SCT180
     FM281500 14010KT P6SM SCT120 SCT180
     FM281800 19007KT P6SM SCT120 BKN180
     FM282100 28007KT P6SM VCTS SCT100CB BKN150=



000
FTUS45 KGJT 271737
TAFGJT
TAF
KGJT 271737Z 2718/2818 18005KT P6SM SCT110 SCT180
     FM272000 28008KT P6SM VCTS SCT100CB BKN150
     FM280300 06008KT P6SM SCT120 BKN150
     FM280600 11008KT P6SM FEW120 SCT180
     FM281500 14010KT P6SM SCT120 SCT180=



000
FTUS45 KGJT 271737
TAFGJT
TAF
KGJT 271737Z 2718/2818 18005KT P6SM SCT110 SCT180
     FM272000 28008KT P6SM VCTS SCT100CB BKN150
     FM280300 06008KT P6SM SCT120 BKN150
     FM280600 11008KT P6SM FEW120 SCT180
     FM281500 14010KT P6SM SCT120 SCT180=



000
FTUS45 KGJT 271518 AAA
TAFGJT
TAF AMD
KGJT 271518Z 2715/2812 08010G15KT P6SM FEW130
     FM271800 21006KT P6SM FEW100 SCT200
     FM272000 28008KT P6SM VCTS SCT100CB BKN200
     FM280300 06008KT P6SM SCT120 BKN200
     FM280600 11008KT P6SM FEW120 SCT200=



000
FTUS45 KGJT 271518 AAA
TAFGJT
TAF AMD
KGJT 271518Z 2715/2812 08010G15KT P6SM FEW130
     FM271800 21006KT P6SM FEW100 SCT200
     FM272000 28008KT P6SM VCTS SCT100CB BKN200
     FM280300 06008KT P6SM SCT120 BKN200
     FM280600 11008KT P6SM FEW120 SCT200=



000
FTUS45 KGJT 271136
TAFGJT
TAF
KGJT 271136Z 2712/2812 17004KT P6SM FEW130
     FM271800 21006KT P6SM FEW100 SCT200
     FM272000 28008KT P6SM VCTS SCT100CB BKN200
     FM280300 06008KT P6SM SCT120 BKN200
     FM280600 11008KT P6SM FEW120 SCT200=



000
FTUS45 KGJT 271136
TAFGJT
TAF
KGJT 271136Z 2712/2812 17004KT P6SM FEW130
     FM271800 21006KT P6SM FEW100 SCT200
     FM272000 28008KT P6SM VCTS SCT100CB BKN200
     FM280300 06008KT P6SM SCT120 BKN200
     FM280600 11008KT P6SM FEW120 SCT200=



000
FTUS45 KGJT 270520
TAFGJT
TAF
KGJT 270520Z 2706/2806 35010G20KT P6SM FEW100 BKN150
     FM270700 10005KT P6SM BKN150
     FM271400 13007KT P6SM SCT150
     FM271800 19008KT P6SM SCT120 BKN200
     FM272100 23007KT P6SM VCSH SCT100 BKN200
     FM280300 07010KT P6SM BKN200=



000
FTUS45 KGJT 270520
TAFGJT
TAF
KGJT 270520Z 2706/2806 35010G20KT P6SM FEW100 BKN150
     FM270700 10005KT P6SM BKN150
     FM271400 13007KT P6SM SCT150
     FM271800 19008KT P6SM SCT120 BKN200
     FM272100 23007KT P6SM VCSH SCT100 BKN200
     FM280300 07010KT P6SM BKN200=



000
FTUS45 KGJT 270204 AAC
TAFGJT
TAF AMD
KGJT 270204Z 2702/2724 07015G30KT P6SM VCSH SCT110 BKN150
     FM270500 10007KT P6SM FEW110 SCT150
     FM271400 13007KT P6SM SCT150
     FM271800 19008KT P6SM SCT120 BKN200=



000
FTUS45 KGJT 270204 AAC
TAFGJT
TAF AMD
KGJT 270204Z 2702/2724 07015G30KT P6SM VCSH SCT110 BKN150
     FM270500 10007KT P6SM FEW110 SCT150
     FM271400 13007KT P6SM SCT150
     FM271800 19008KT P6SM SCT120 BKN200=



000
FTUS45 KGJT 270043 AAB
TAFGJT
TAF AMD
KGJT 270043Z 2701/2724 20010KT P6SM VCTS SCT100CB BKN150
      TEMPO 2701/2702 05020G30KT
     FM270200 04005KT P6SM VCSH SCT110 BKN150
     FM270500 10007KT P6SM FEW110 SCT150
     FM271400 13007KT P6SM SCT150
     FM271800 19008KT P6SM SCT120 BKN200=



000
FTUS45 KGJT 270043 AAB
TAFGJT
TAF AMD
KGJT 270043Z 2701/2724 20010KT P6SM VCTS SCT100CB BKN150
      TEMPO 2701/2702 05020G30KT
     FM270200 04005KT P6SM VCSH SCT110 BKN150
     FM270500 10007KT P6SM FEW110 SCT150
     FM271400 13007KT P6SM SCT150
     FM271800 19008KT P6SM SCT120 BKN200=



000
FTUS45 KGJT 262321
TAFGJT
TAF
KGJT 262321Z 2700/2724 20010KT P6SM VCTS SCT100CB BKN150
      TEMPO 2700/2701 -TSRA
     FM270200 04005KT P6SM VCSH SCT110 BKN150
     FM270500 10007KT P6SM FEW110 SCT150
     FM271400 13007KT P6SM SCT150
     FM271800 19008KT P6SM SCT120 BKN200=



000
FTUS45 KGJT 262321
TAFGJT
TAF
KGJT 262321Z 2700/2724 20010KT P6SM VCTS SCT100CB BKN150
      TEMPO 2700/2701 -TSRA
     FM270200 04005KT P6SM VCSH SCT110 BKN150
     FM270500 10007KT P6SM FEW110 SCT150
     FM271400 13007KT P6SM SCT150
     FM271800 19008KT P6SM SCT120 BKN200=



    US Dept of Commerce
    National Oceanic and Atmospheric Administration
    National Weather Service
    1325 East West Highway
    Silver Spring, MD 20910
    Page Author: NWS Internet Services Team
Disclaimer
Information Quality
Credits
Glossary
Privacy Policy
Freedom of Information Act (FOIA)
About Us
Career Opportunities